Time;durP1;ratioP1;P1;durP2;ratioP2;P2;SDS_P1;SDS_P2;PMS_P1;PMS_P2;Temp;Humidity;BMP_temperature;BMP_pressure;BME280_temperature;BME280_humidity;BME280_pressure;Samples;Min_cycle;Max_cycle;Signal;HPM_P1;HPM_P2
2022/01/26 00:00:06;;;;;;;18.70;11.52;;;19.40;43.50;;;;;;5062400;28;20045;-64
2022/01/26 00:08:01;;;;;;;20.05;12.40;;;19.40;43.60;;;;;;5058110;28;20491;-65
2022/01/26 00:10:27;;;;;;;21.02;11.98;;;19.40;43.60;;;;;;5066508;28;20025;-65
2022/01/26 00:12:53;;;;;;;17.70;11.27;;;19.30;43.60;;;;;;5060992;28;20038;-65
2022/01/26 00:15:18;;;;;;;18.98;11.57;;;19.30;43.60;;;;;;5060175;28;20523;-65
2022/01/26 00:17:44;;;;;;;18.33;11.27;;;19.30;43.60;;;;;;5051440;28;20037;-65
2022/01/26 00:20:21;;;;;;;19.33;11.48;;;19.30;43.60;;;;;;5063874;28;20025;-66
2022/01/26 00:38:36;;;;;;;18.98;11.57;;;19.20;43.60;;;;;;5062539;28;20116;-65
2022/01/26 00:41:05;;;;;;;22.08;12.23;;;19.20;43.60;;;;;;5039250;28;20040;-66
2022/01/26 00:43:33;;;;;;;18.73;11.85;;;19.20;43.70;;;;;;5060229;28;20036;-66
2022/01/26 00:46:00;;;;;;;18.25;11.82;;;19.20;43.70;;;;;;5065775;28;20036;-65
2022/01/26 00:48:30;;;;;;;18.58;11.77;;;19.20;43.60;;;;;;5046091;28;20045;-64
2022/01/26 00:50:59;;;;;;;19.52;12.13;;;19.20;43.80;;;;;;5063859;28;20510;-66
2022/01/26 00:53:32;;;;;;;19.10;11.52;;;19.20;43.70;;;;;;5068480;28;20052;-65
2022/01/26 00:55:57;;;;;;;18.20;11.25;;;19.20;43.70;;;;;;5069981;28;20025;-65
2022/01/26 00:58:23;;;;;;;17.80;11.43;;;19.20;43.80;;;;;;5061697;28;20043;-66
2022/01/26 01:00:49;;;;;;;18.13;11.65;;;19.10;43.70;;;;;;5066581;28;20025;-65
2022/01/26 01:03:15;;;;;;;18.50;11.93;;;19.20;43.80;;;;;;5071366;28;20039;-66
2022/01/26 01:05:53;;;;;;;20.92;12.13;;;19.20;43.80;;;;;;5055604;28;20033;-66
2022/01/26 01:08:22;;;;;;;16.95;10.82;;;19.20;43.80;;;;;;5038432;28;20052;-66
2022/01/26 01:10:50;;;;;;;18.13;11.05;;;19.10;43.70;;;;;;5065616;28;20372;-66
2022/01/26 01:13:20;;;;;;;19.73;12.07;;;19.10;43.70;;;;;;5069152;28;20021;-66
2022/01/26 01:15:47;;;;;;;20.10;12.18;;;19.10;43.70;;;;;;5053637;28;20040;-67
2022/01/26 01:18:24;;;;;;;19.80;11.90;;;19.10;43.70;;;;;;5059331;28;20033;-68
2022/01/26 01:31:48;;;;;;;18.17;11.45;;;19.00;43.50;;;;;;5070910;28;20055;-66
2022/01/26 01:34:17;;;;;;;19.38;12.30;;;18.90;43.60;;;;;;5050348;28;20025;-67
2022/01/26 01:36:45;;;;;;;18.75;12.05;;;18.90;43.40;;;;;;5060086;28;20481;-66
2022/01/26 01:39:11;;;;;;;18.85;12.13;;;18.90;43.50;;;;;;5072041;28;20138;-66
2022/01/26 01:41:40;;;;;;;19.38;12.15;;;18.90;43.50;;;;;;5065955;28;20520;-66
2022/01/26 01:44:07;;;;;;;19.17;11.77;;;18.90;43.40;;;;;;5073722;28;20107;-66
2022/01/26 01:46:34;;;;;;;19.13;11.73;;;18.90;43.40;;;;;;5058289;28;20113;-67
2022/01/26 01:49:01;;;;;;;18.58;11.77;;;18.80;43.30;;;;;;5067668;28;20097;-68
2022/01/26 01:51:32;;;;;;;19.83;11.00;;;18.80;43.30;;;;;;5072995;28;20200;-68
2022/01/26 01:53:58;;;;;;;19.23;11.45;;;18.80;43.30;;;;;;5071878;28;20029;-67
2022/01/26 01:56:26;;;;;;;20.50;12.48;;;18.80;43.30;;;;;;5072787;28;20028;-67
2022/01/26 01:58:53;;;;;;;18.80;11.85;;;18.80;43.30;;;;;;5074845;28;20021;-67
2022/01/26 02:01:19;;;;;;;20.52;12.75;;;18.70;43.20;;;;;;5067251;28;20029;-67
2022/01/26 02:03:45;;;;;;;20.27;12.57;;;18.70;43.20;;;;;;5061908;28;20443;-68
2022/01/26 02:06:11;;;;;;;21.10;12.90;;;18.70;43.20;;;;;;5069084;28;20037;-68
2022/01/26 02:08:36;;;;;;;19.58;12.38;;;18.70;43.20;;;;;;5070533;28;20035;-68
2022/01/26 02:11:05;;;;;;;20.08;12.15;;;18.70;43.10;;;;;;5058689;28;20461;-66
2022/01/26 02:13:38;;;;;;;18.70;11.38;;;18.70;43.10;;;;;;5072947;28;20025;-66
2022/01/26 02:16:19;;;;;;;20.83;12.57;;;18.60;43.00;;;;;;5068616;28;20025;-66
2022/01/26 03:00:22;;;;;;;20.52;12.38;;;18.30;43.10;;;;;;5024869;28;20137;-67
2022/01/26 03:02:53;;;;;;;21.27;12.30;;;18.30;43.10;;;;;;5054771;28;20033;-67
2022/01/26 03:05:23;;;;;;;22.05;12.75;;;18.30;44.00;;;;;;5061870;28;20029;-68
2022/01/26 03:08:00;;;;;;;21.83;12.82;;;18.30;43.00;;;;;;5059752;28;20020;-68
2022/01/26 03:10:37;;;;;;;20.58;12.27;;;18.30;43.00;;;;;;5064394;28;22057;-68
2022/01/26 03:13:11;;;;;;;21.80;13.05;;;18.20;43.00;;;;;;5055887;28;20498;-68
2022/01/26 03:15:42;;;;;;;22.30;13.02;;;18.30;43.00;;;;;;5064289;28;20021;-68
2022/01/26 03:20:55;;;;;;;21.95;12.63;;;18.20;42.90;;;;;;5066427;28;20052;-67
2022/01/26 03:29:11;;;;;;;20.23;12.52;;;18.20;42.90;;;;;;5067817;28;20059;-68
2022/01/26 03:34:19;;;;;;;20.38;12.15;;;18.20;43.00;;;;;;5060532;28;20029;-68
2022/01/26 03:39:13;;;;;;;20.95;12.65;;;18.10;42.90;;;;;;5067347;28;20051;-67
2022/01/26 03:41:44;;;;;;;21.77;12.32;;;18.10;42.90;;;;;;5060653;28;20035;-67
2022/01/26 03:44:10;;;;;;;21.58;12.70;;;18.10;42.80;;;;;;5067332;28;20127;-67
2022/01/26 03:46:36;;;;;;;23.17;13.40;;;18.10;42.90;;;;;;5065872;28;20021;-67
2022/01/26 03:49:04;;;;;;;23.80;13.40;;;18.10;42.90;;;;;;5071392;28;20052;-67
2022/01/26 03:51:30;;;;;;;21.08;12.38;;;18.10;42.80;;;;;;5057257;28;20036;-66
2022/01/26 03:53:55;;;;;;;20.85;12.02;;;18.10;42.80;;;;;;5067341;28;20100;-67
2022/01/26 03:56:21;;;;;;;21.17;12.57;;;18.10;42.80;;;;;;5049334;28;20033;-67
2022/01/26 03:58:47;;;;;;;22.83;12.73;;;18.10;42.80;;;;;;5069686;28;20123;-66
2022/01/26 04:01:12;;;;;;;21.92;12.48;;;18.10;42.80;;;;;;5057459;28;20032;-66
2022/01/26 04:03:38;;;;;;;22.55;13.20;;;18.10;42.80;;;;;;5037649;28;20025;-67
2022/01/26 04:06:04;;;;;;;21.05;11.85;;;18.10;42.80;;;;;;5063587;28;20082;-66
2022/01/26 04:08:32;;;;;;;24.10;12.75;;;18.10;42.80;;;;;;5065953;28;20452;-67
2022/01/26 04:13:26;;;;;;;21.05;11.98;;;18.00;42.80;;;;;;5065428;28;20037;-68
2022/01/26 04:15:51;;;;;;;21.05;12.57;;;18.00;42.70;;;;;;5063086;28;20033;-68
2022/01/26 04:18:23;;;;;;;21.83;12.27;;;18.00;42.70;;;;;;5067369;28;20123;-68
2022/01/26 04:20:52;;;;;;;20.53;12.70;;;18.00;42.70;;;;;;5047711;28;20379;-68
2022/01/26 04:23:37;;;;;;;22.67;12.90;;;18.00;42.70;;;;;;5063065;28;20487;-68
2022/01/26 04:26:03;;;;;;;22.52;12.45;;;18.00;42.70;;;;;;5053547;28;20029;-68
2022/01/26 04:28:37;;;;;;;22.20;13.05;;;18.00;42.70;;;;;;5068175;28;20123;-67
2022/01/26 04:31:03;;;;;;;20.63;12.45;;;18.00;42.70;;;;;;5070236;28;20452;-68
2022/01/26 04:33:32;;;;;;;21.83;13.23;;;17.90;42.70;;;;;;5072616;28;20025;-67
2022/01/26 04:35:58;;;;;;;22.52;13.48;;;18.00;42.70;;;;;;5073279;28;20454;-67
2022/01/26 04:38:34;;;;;;;21.85;12.77;;;17.90;42.70;;;;;;5049821;28;20052;-67
2022/01/26 04:41:49;;;;;;;22.67;12.90;;;17.90;42.70;;;;;;5053160;28;20037;-66
2022/01/26 04:43:49;;;;;;;21.73;12.25;;;17.90;42.70;;;;;;5055361;28;20067;-67
2022/01/26 04:46:14;;;;;;;22.30;12.63;;;17.90;42.70;;;;;;5057822;28;20064;-67
2022/01/26 04:48:40;;;;;;;21.63;12.85;;;17.80;42.70;;;;;;5041803;28;20048;-68
2022/01/26 04:51:06;;;;;;;20.55;12.18;;;17.90;42.70;;;;;;5057717;28;20789;-67
2022/01/26 04:53:31;;;;;;;21.23;12.27;;;17.80;42.70;;;;;;5068958;28;20357;-67
2022/01/26 04:55:57;;;;;;;22.83;12.57;;;17.80;42.60;;;;;;5068425;28;20620;-68
2022/01/26 04:58:23;;;;;;;23.30;13.30;;;17.80;42.60;;;;;;5068224;28;20036;-67
2022/01/26 05:00:48;;;;;;;21.70;12.73;;;17.80;43.60;;;;;;5076527;28;20040;-67
2022/01/26 05:03:14;;;;;;;22.65;13.20;;;17.80;42.60;;;;;;5049454;28;20052;-68
2022/01/26 05:05:40;;;;;;;23.15;13.52;;;17.80;42.70;;;;;;5069385;28;20040;-68
2022/01/26 05:08:06;;;;;;;22.95;13.40;;;17.80;42.60;;;;;;5065568;28;20033;-68
2022/01/26 05:10:31;;;;;;;22.10;12.80;;;17.80;42.60;;;;;;5053618;28;20039;-68
2022/01/26 05:12:57;;;;;;;21.48;12.70;;;17.80;42.70;;;;;;5066113;28;20024;-67
2022/01/26 05:15:25;;;;;;;22.30;12.40;;;17.80;42.60;;;;;;5077120;28;20090;-67
2022/01/26 05:17:51;;;;;;;21.05;12.50;;;17.80;42.60;;;;;;5075743;28;20025;-67
2022/01/26 05:20:17;;;;;;;21.65;12.73;;;17.80;42.60;;;;;;5074291;28;20494;-67
2022/01/26 05:22:44;;;;;;;20.58;12.95;;;17.70;42.60;;;;;;5072915;28;20112;-68
2022/01/26 05:25:11;;;;;;;22.35;13.13;;;17.70;42.60;;;;;;5061448;28;20381;-68
2022/01/26 05:27:38;;;;;;;20.52;12.65;;;17.70;42.60;;;;;;5072243;28;20032;-68
2022/01/26 05:30:05;;;;;;;23.00;13.40;;;17.70;42.60;;;;;;5064553;28;20024;-67
2022/01/26 05:32:31;;;;;;;23.27;13.48;;;17.70;42.60;;;;;;5046772;28;20104;-67
2022/01/26 05:34:57;;;;;;;24.48;13.43;;;17.70;42.60;;;;;;5056510;28;20128;-67
2022/01/26 05:37:23;;;;;;;22.38;12.93;;;17.70;42.60;;;;;;5067639;28;20033;-66
2022/01/26 05:39:48;;;;;;;22.70;13.02;;;17.70;42.60;;;;;;5059830;28;20029;-66
2022/01/26 05:42:15;;;;;;;22.50;12.98;;;17.70;42.60;;;;;;5068401;28;20045;-66
2022/01/26 05:44:41;;;;;;;23.70;13.40;;;17.70;42.60;;;;;;5075497;28;20056;-66
2022/01/26 05:47:13;;;;;;;23.77;13.20;;;17.60;42.50;;;;;;5065661;28;20092;-66
2022/01/26 05:49:39;;;;;;;22.73;13.27;;;17.60;42.60;;;;;;5060930;28;20090;-66
2022/01/26 05:52:05;;;;;;;22.60;12.82;;;17.60;42.60;;;;;;5065460;28;20423;-66
2022/01/26 05:54:30;;;;;;;22.52;12.90;;;17.60;42.60;;;;;;5061584;28;20542;-66
2022/01/26 05:56:56;;;;;;;23.42;13.23;;;17.60;42.70;;;;;;5069113;28;20388;-66
2022/01/26 05:59:22;;;;;;;22.52;13.10;;;17.60;42.60;;;;;;5073325;28;20087;-66
2022/01/26 06:01:48;;;;;;;21.90;13.02;;;17.60;42.50;;;;;;5070185;28;20082;-67
2022/01/26 06:04:14;;;;;;;22.30;13.13;;;17.60;42.60;;;;;;5074911;28;20042;-68
2022/01/26 06:06:40;;;;;;;23.08;13.25;;;17.50;42.50;;;;;;5075087;28;20127;-67
2022/01/26 06:09:05;;;;;;;24.13;13.05;;;17.50;42.50;;;;;;5064046;28;20053;-67
2022/01/26 06:11:31;;;;;;;22.40;12.70;;;17.50;42.50;;;;;;5055740;28;20075;-67
2022/01/26 06:13:57;;;;;;;22.85;12.90;;;17.50;42.50;;;;;;5072290;28;20033;-67
2022/01/26 06:16:23;;;;;;;23.75;13.32;;;17.50;42.60;;;;;;5075744;28;20040;-67
2022/01/26 06:18:48;;;;;;;23.77;13.15;;;17.50;42.50;;;;;;5070434;28;20036;-68
2022/01/26 06:21:14;;;;;;;24.30;13.15;;;17.50;42.60;;;;;;5065102;28;20041;-67
2022/01/26 06:23:40;;;;;;;23.15;13.88;;;17.50;42.50;;;;;;5067161;28;20041;-68
2022/01/26 06:26:07;;;;;;;23.38;13.07;;;17.50;42.50;;;;;;5055422;28;20419;-68
2022/01/26 06:28:32;;;;;;;22.98;13.18;;;17.50;43.50;;;;;;5071760;28;20464;-68
2022/01/26 06:31:03;;;;;;;23.88;12.65;;;17.50;42.50;;;;;;5063138;28;20032;-68
2022/01/26 06:33:33;;;;;;;25.42;13.30;;;17.50;42.60;;;;;;5068212;28;20036;-68
2022/01/26 06:36:00;;;;;;;22.63;13.05;;;17.40;42.50;;;;;;5067474;28;20541;-67
2022/01/26 06:38:28;;;;;;;21.08;12.30;;;17.40;42.50;;;;;;5058436;28;20029;-68
2022/01/26 06:40:54;;;;;;;25.58;13.98;;;17.40;42.50;;;;;;5063350;28;20021;-67
2022/01/26 06:43:22;;;;;;;22.80;12.82;;;17.40;42.50;;;;;;5074283;28;20380;-67
2022/01/26 06:45:56;;;;;;;24.58;13.77;;;17.40;42.50;;;;;;5075207;28;20039;-68
2022/01/26 06:50:50;;;;;;;23.27;13.05;;;17.40;42.50;;;;;;5057172;28;20044;-67
2022/01/26 06:53:16;;;;;;;25.38;13.68;;;17.40;42.50;;;;;;5065810;28;20048;-67
2022/01/26 06:55:42;;;;;;;26.08;13.85;;;17.40;42.50;;;;;;5067104;28;20113;-66
2022/01/26 06:58:07;;;;;;;26.83;13.95;;;17.30;42.50;;;;;;5063949;28;20036;-66
2022/01/26 07:00:33;;;;;;;24.75;13.27;;;17.30;42.50;;;;;;5073668;28;20029;-66
2022/01/26 07:02:59;;;;;;;25.45;13.63;;;17.30;42.50;;;;;;5061942;28;20377;-67
2022/01/26 07:05:25;;;;;;;25.42;13.93;;;17.30;42.50;;;;;;5055101;28;20038;-66
2022/01/26 07:07:51;;;;;;;23.58;13.00;;;17.30;42.50;;;;;;5058843;28;20107;-67
2022/01/26 07:10:17;;;;;;;25.52;14.27;;;17.30;42.50;;;;;;5057487;28;20121;-66
2022/01/26 07:12:42;;;;;;;26.10;14.48;;;17.30;42.50;;;;;;5071204;28;20028;-66
2022/01/26 07:23:06;;;;;;;26.67;14.02;;;17.20;42.50;;;;;;5064824;28;20107;-67
2022/01/26 07:25:32;;;;;;;26.90;14.00;;;17.20;42.50;;;;;;5055809;28;20502;-67
2022/01/26 07:28:01;;;;;;;26.35;14.50;;;17.20;42.50;;;;;;5066422;28;20021;-67
2022/01/26 07:30:27;;;;;;;26.30;14.38;;;17.20;42.50;;;;;;5072359;28;20029;-67
2022/01/26 07:32:53;;;;;;;24.60;13.70;;;17.20;42.50;;;;;;5065897;28;20043;-67
2022/01/26 07:35:18;;;;;;;26.25;13.63;;;17.20;42.50;;;;;;5064945;28;20103;-67
2022/01/26 07:37:45;;;;;;;27.83;14.68;;;17.20;42.50;;;;;;5048005;28;20037;-66
2022/01/26 07:40:13;;;;;;;65.35;27.08;;;17.20;42.50;;;;;;5048708;28;20025;-66
2022/01/26 07:42:39;;;;;;;66.57;27.80;;;16.90;40.10;;;;;;5066932;28;20024;-65
2022/01/26 07:45:06;;;;;;;62.17;26.88;;;16.20;39.60;;;;;;5065532;28;20104;-66
2022/01/26 07:47:33;;;;;;;70.65;29.83;;;15.50;40.50;;;;;;5064237;28;20048;-67
2022/01/26 07:50:00;;;;;;;67.10;27.23;;;15.00;41.60;;;;;;5066943;28;20017;-66
2022/01/26 07:52:28;;;;;;;74.20;30.20;;;14.50;42.30;;;;;;5065312;28;20496;-66
2022/01/26 07:54:54;;;;;;;81.57;31.75;;;14.20;42.90;;;;;;5063038;28;20029;-66
2022/01/26 07:57:21;;;;;;;72.05;27.50;;;13.80;43.50;;;;;;5064182;28;20112;-66
2022/01/26 07:59:47;;;;;;;65.07;26.67;;;13.60;44.50;;;;;;5067691;28;20033;-67
2022/01/26 08:02:12;;;;;;;65.10;26.00;;;13.60;44.80;;;;;;5062562;28;20028;-67
2022/01/26 08:04:38;;;;;;;66.78;25.63;;;13.60;44.80;;;;;;5064824;28;20035;-67
2022/01/26 08:07:04;;;;;;;61.05;25.05;;;13.70;45.00;;;;;;5046204;28;20047;-67
2022/01/26 08:09:29;;;;;;;61.08;23.92;;;13.80;44.80;;;;;;5063879;28;20024;-67
2022/01/26 08:11:55;;;;;;;60.33;24.90;;;13.90;44.70;;;;;;5062212;28;20487;-67
2022/01/26 08:14:21;;;;;;;57.78;23.15;;;13.90;44.80;;;;;;5062769;28;20033;-67
2022/01/26 08:16:46;;;;;;;58.78;23.35;;;14.00;44.80;;;;;;5063605;28;20057;-67
2022/01/26 08:19:13;;;;;;;53.03;22.08;;;14.10;44.80;;;;;;5066252;28;20024;-68
2022/01/26 08:21:40;;;;;;;47.55;19.33;;;14.10;44.60;;;;;;5063659;28;20490;-68
2022/01/26 08:24:13;;;;;;;49.15;19.92;;;14.20;44.80;;;;;;5064126;28;20108;-68
2022/01/26 08:26:43;;;;;;;;;;;14.30;44.90;;;;;;5066391;28;20029;-67
2022/01/26 08:29:16;;;;;;;45.10;18.75;;;14.40;44.50;;;;;;5052994;28;19913;-66
2022/01/26 08:31:42;;;;;;;53.28;20.23;;;14.40;44.70;;;;;;5054128;28;20040;-67
2022/01/26 08:34:08;;;;;;;41.65;18.08;;;14.40;44.70;;;;;;5075452;28;20017;-67
2022/01/26 08:36:33;;;;;;;34.35;16.60;;;14.40;45.10;;;;;;5078643;28;20039;-64
2022/01/26 08:38:59;;;;;;;35.53;15.85;;;14.70;46.00;;;;;;5079863;28;20103;-64
2022/01/26 08:41:24;;;;;;;35.92;16.05;;;15.00;45.70;;;;;;5079959;28;20062;-64
2022/01/26 08:43:50;;;;;;;33.10;15.00;;;15.40;45.20;;;;;;5079922;28;20025;-65
2022/01/26 08:46:18;;;;;;;31.67;14.50;;;15.70;44.70;;;;;;5079741;28;20044;-65
2022/01/26 08:48:44;;;;;;;31.88;14.63;;;16.00;44.30;;;;;;5079487;28;20056;-68
2022/01/26 08:51:10;;;;;;;31.58;15.50;;;16.30;43.60;;;;;;5079610;28;20106;-68
2022/01/26 08:53:35;;;;;;;27.00;13.05;;;16.50;43.30;;;;;;5079625;28;20056;-68
2022/01/26 08:56:01;;;;;;;28.73;14.55;;;16.70;43.00;;;;;;5077446;28;20040;-68
2022/01/26 08:58:26;;;;;;;31.75;14.90;;;16.90;42.80;;;;;;5073931;28;20031;-68
2022/01/26 09:00:54;;;;;;;31.73;14.73;;;17.10;42.20;;;;;;5079972;28;20459;-68
2022/01/26 09:03:20;;;;;;;28.25;14.30;;;17.20;41.80;;;;;;5079894;28;20353;-68
2022/01/26 09:05:46;;;;;;;30.00;14.85;;;17.40;41.60;;;;;;5061770;28;20025;-68
2022/01/26 09:08:11;;;;;;;28.50;12.82;;;17.50;41.20;;;;;;5079468;28;20035;-65
2022/01/26 09:10:39;;;;;;;25.27;13.50;;;17.70;41.00;;;;;;5079775;28;20472;-67
2022/01/26 09:13:05;;;;;;;27.02;13.40;;;17.80;40.90;;;;;;5068319;28;20163;-67
2022/01/26 09:15:31;;;;;;;24.77;12.55;;;18.00;40.90;;;;;;5059469;28;20551;-67
2022/01/26 09:18:01;;;;;;;27.23;12.73;;;18.10;40.90;;;;;;5059958;28;20025;-67
2022/01/26 09:20:26;;;;;;;24.45;12.90;;;18.20;40.70;;;;;;5059545;28;20025;-66
2022/01/26 09:22:52;;;;;;;22.30;12.75;;;18.30;40.50;;;;;;5059865;28;20061;-66
2022/01/26 09:25:18;;;;;;;25.90;12.43;;;18.40;40.50;;;;;;5076757;28;20033;-66
2022/01/26 09:27:43;;;;;;;22.73;12.27;;;18.50;40.50;;;;;;5079343;28;20024;-66
2022/01/26 09:30:10;;;;;;;22.92;12.57;;;18.60;40.40;;;;;;5079384;28;20108;-65
2022/01/26 09:32:37;;;;;;;21.63;11.73;;;18.70;40.40;;;;;;5079567;28;20541;-65
2022/01/26 09:35:05;;;;;;;21.48;11.35;;;18.80;40.40;;;;;;5079344;28;20044;-65
2022/01/26 09:37:30;;;;;;;22.35;11.30;;;18.90;40.30;;;;;;5079641;28;20025;-66
2022/01/26 09:39:56;;;;;;;21.70;12.07;;;19.00;40.20;;;;;;5061251;28;20035;-66
2022/01/26 09:42:23;;;;;;;22.30;12.55;;;19.10;40.40;;;;;;5078660;28;20027;-66
2022/01/26 09:44:48;;;;;;;22.10;12.77;;;19.20;40.60;;;;;;5056985;28;20028;-67
2022/01/26 09:47:14;;;;;;;23.98;12.32;;;19.30;40.60;;;;;;5076191;28;20048;-67
2022/01/26 09:49:40;;;;;;;22.13;11.60;;;19.40;40.60;;;;;;5076253;28;20540;-66
2022/01/26 09:52:30;;;;;;;21.17;11.65;;;19.40;40.40;;;;;;5076413;28;20072;-66
2022/01/26 09:54:59;;;;;;;22.52;11.40;;;19.50;40.30;;;;;;5075409;28;20020;-64
2022/01/26 09:57:26;;;;;;;22.10;11.68;;;19.60;40.20;;;;;;5067355;28;20029;-67
2022/01/26 09:59:52;;;;;;;23.08;11.68;;;19.70;40.30;;;;;;5075491;28;20094;-64
2022/01/26 10:02:29;;;;;;;22.42;11.60;;;19.70;40.20;;;;;;5075615;28;20048;-64
2022/01/26 10:05:04;;;;;;;20.50;10.73;;;19.80;40.10;;;;;;5076234;28;20105;-65
2022/01/26 10:18:23;;;;;;;22.20;11.20;;;20.10;39.60;;;;;;5024694;28;20029;-66
2022/01/26 10:20:51;;;;;;;17.73;10.50;;;20.20;39.70;;;;;;5064019;28;20105;-66
2022/01/26 10:23:18;;;;;;;20.63;11.50;;;20.30;39.70;;;;;;5075704;28;20020;-66
2022/01/26 10:25:47;;;;;;;20.25;11.20;;;20.30;39.70;;;;;;5057269;28;20028;-66
2022/01/26 10:28:14;;;;;;;17.58;10.30;;;20.40;39.60;;;;;;5057375;28;20021;-66
2022/01/26 10:30:45;;;;;;;20.42;11.25;;;20.50;39.60;;;;;;5062221;28;20063;-67
2022/01/26 10:33:12;;;;;;;19.83;10.95;;;20.50;39.30;;;;;;5075334;28;20147;-68
2022/01/26 10:35:38;;;;;;;20.70;11.05;;;20.60;39.00;;;;;;5053565;28;20029;-68
2022/01/26 10:38:04;;;;;;;21.77;10.73;;;20.70;38.90;;;;;;5061518;28;20035;-65
2022/01/26 10:40:31;;;;;;;18.40;10.45;;;20.70;38.80;;;;;;5055143;28;20021;-67
2022/01/26 10:43:12;;;;;;;21.83;11.98;;;20.80;38.70;;;;;;5054943;28;20532;-68
2022/01/26 10:45:55;;;;;;;20.27;10.63;;;20.90;38.50;;;;;;5068321;28;20029;-65
2022/01/26 10:48:28;;;;;;;17.27;9.82;;;20.90;38.50;;;;;;5074963;28;20037;-65
2022/01/26 10:53:46;;;;;;;19.23;9.90;;;21.00;38.40;;;;;;5075487;28;20031;-67
2022/01/26 10:56:12;;;;;;;15.05;9.23;;;21.10;38.50;;;;;;5058092;28;20592;-67
2022/01/26 10:58:38;;;;;;;17.42;9.45;;;21.10;38.40;;;;;;5070587;28;20165;-65
2022/01/26 11:01:05;;;;;;;16.85;9.90;;;21.20;38.40;;;;;;5074921;28;20082;-66
2022/01/26 11:03:32;;;;;;;18.77;10.23;;;21.30;38.40;;;;;;5074569;28;20468;-65
2022/01/26 11:05:57;;;;;;;17.80;9.05;;;21.30;38.30;;;;;;5056830;28;20391;-66
2022/01/26 11:08:25;;;;;;;16.52;9.50;;;21.30;38.30;;;;;;5065519;28;20028;-66
2022/01/26 11:10:50;;;;;;;15.90;9.07;;;21.40;38.20;;;;;;5058417;28;20104;-67
2022/01/26 11:13:42;;;;;;;15.57;9.23;;;21.50;38.20;;;;;;5046142;28;20112;-66
2022/01/26 11:16:08;;;;;;;14.47;8.37;;;21.60;37.80;;;;;;5058976;28;20040;-67
2022/01/26 11:18:51;;;;;;;14.68;8.60;;;21.60;38.00;;;;;;5074322;28;20513;-65
2022/01/26 11:21:27;;;;;;;15.00;8.65;;;21.60;37.70;;;;;;5074141;28;20031;-66
2022/01/26 11:24:09;;;;;;;16.90;9.25;;;21.70;37.70;;;;;;5056250;28;20368;-70
2022/01/26 11:26:38;;;;;;;17.20;8.98;;;21.70;37.60;;;;;;5073801;28;20518;-67
2022/01/26 11:29:23;;;;;;;16.45;9.13;;;21.80;37.60;;;;;;5056434;28;20519;-68
2022/01/26 11:32:12;;;;;;;16.33;8.98;;;21.90;37.40;;;;;;5074385;28;20090;-66
2022/01/26 11:34:40;;;;;;;17.17;9.25;;;21.90;37.40;;;;;;5074088;28;20021;-68
2022/01/26 11:37:14;;;;;;;15.80;9.00;;;21.90;37.70;;;;;;5065986;28;20052;-67
2022/01/26 11:45:16;;;;;;;15.60;8.63;;;21.80;37.80;;;;;;5067901;28;20047;-67
2022/01/26 11:47:56;;;;;;;17.20;9.55;;;21.90;37.70;;;;;;5055978;28;20500;-65
2022/01/26 11:50:22;;;;;;;16.73;10.15;;;21.90;37.70;;;;;;5056701;28;20029;-64
2022/01/26 11:53:02;;;;;;;17.13;10.23;;;21.90;37.90;;;;;;5071491;28;20421;-67
2022/01/26 11:55:48;;;;;;;16.27;8.93;;;21.90;37.90;;;;;;5072511;28;20033;-65
2022/01/26 11:58:27;;;;;;;15.90;9.02;;;21.90;38.00;;;;;;5061639;28;20024;-65
2022/01/26 12:01:12;;;;;;;20.75;9.02;;;21.90;38.00;;;;;;5072480;28;20029;-64
2022/01/26 12:03:47;;;;;;;19.23;9.30;;;21.90;38.00;;;;;;5056476;28;20025;-67
2022/01/26 12:06:20;;;;;;;18.58;9.90;;;21.90;38.00;;;;;;5069138;28;20036;-65
2022/01/26 12:08:46;;;;;;;15.77;9.00;;;21.90;38.10;;;;;;5055025;28;20376;-67
2022/01/26 12:11:14;;;;;;;16.17;9.40;;;21.90;38.40;;;;;;5052463;28;20029;-67
2022/01/26 12:13:41;;;;;;;20.13;11.13;;;21.90;38.30;;;;;;5052511;28;20029;-67
2022/01/26 12:16:15;;;;;;;19.15;10.20;;;21.90;38.10;;;;;;5058919;28;20399;-67
2022/01/26 12:32:43;;;;;;;18.70;10.05;;;21.90;38.70;;;;;;5069945;28;20086;-67
2022/01/26 12:35:20;;;;;;;17.83;9.80;;;21.80;38.50;;;;;;5072585;28;20058;-67
2022/01/26 12:43:14;;;;;;;17.77;10.25;;;21.80;38.70;;;;;;5072486;28;20039;-67
2022/01/26 12:45:40;;;;;;;18.77;10.13;;;21.80;38.80;;;;;;5053958;28;20062;-67
2022/01/26 12:48:09;;;;;;;19.83;10.35;;;21.80;38.90;;;;;;5071788;28;20048;-66
2022/01/26 12:50:35;;;;;;;19.35;10.25;;;21.80;38.80;;;;;;5072004;28;20021;-66
2022/01/26 12:53:01;;;;;;;16.45;9.70;;;21.80;38.70;;;;;;5071916;28;20025;-65
2022/01/26 12:55:32;;;;;;;21.17;10.85;;;21.80;38.80;;;;;;5067510;28;20033;-64
2022/01/26 12:57:58;;;;;;;18.48;9.73;;;21.80;38.60;;;;;;5071787;28;20024;-66
2022/01/26 13:00:25;;;;;;;18.15;9.98;;;21.80;38.60;;;;;;5067488;28;20547;-66
2022/01/26 13:02:54;;;;;;;18.33;9.73;;;21.80;38.60;;;;;;5065302;28;20020;-67
2022/01/26 13:05:25;;;;;;;17.58;9.52;;;21.80;38.80;;;;;;5069059;28;20066;-66
2022/01/26 13:08:01;;;;;;;18.95;9.73;;;21.80;38.60;;;;;;5073073;28;20033;-67
2022/01/26 13:10:28;;;;;;;20.63;10.15;;;21.80;38.50;;;;;;5073053;28;20016;-65
2022/01/26 13:12:54;;;;;;;20.85;10.63;;;21.80;38.60;;;;;;5072824;28;20380;-65
2022/01/26 13:15:37;;;;;;;19.95;9.63;;;21.80;38.70;;;;;;5073256;28;20028;-65
2022/01/26 13:18:17;;;;;;;19.17;10.10;;;21.80;39.10;;;;;;5073347;28;20434;-67
2022/01/26 13:26:29;;;;;;;20.50;10.85;;;21.70;38.30;;;;;;5063470;28;20033;-64
2022/01/26 13:32:13;;;;;;;27.35;13.45;;;21.70;38.50;;;;;;5077010;28;20067;-65
2022/01/26 13:37:58;;;;;;;21.80;12.05;;;21.60;38.70;;;;;;5075873;28;20120;-67
2022/01/26 13:51:05;;;;;;;18.83;11.13;;;21.40;39.10;;;;;;5039283;28;20032;-67
2022/01/26 13:53:47;;;;;;;18.45;10.88;;;21.40;39.10;;;;;;5076452;28;20059;-67
2022/01/26 13:57:11;;;;;;;20.10;10.93;;;21.40;39.00;;;;;;5071464;28;20028;-67
2022/01/26 13:59:25;;;;;;;20.33;10.80;;;21.40;38.80;;;;;;5060487;28;20039;-67
2022/01/26 14:01:46;;;;;;;19.50;10.63;;;21.40;38.80;;;;;;5065634;28;20389;-67
2022/01/26 14:04:14;;;;;;;20.08;10.82;;;21.40;38.90;;;;;;5055671;28;20110;-67
2022/01/26 14:06:40;;;;;;;20.63;9.88;;;21.40;38.90;;;;;;5058569;28;20035;-67
2022/01/26 14:09:06;;;;;;;19.75;10.93;;;21.40;38.80;;;;;;5070974;28;20033;-66
2022/01/26 14:11:32;;;;;;;19.45;10.68;;;21.30;38.80;;;;;;5064730;28;20028;-64
2022/01/26 14:13:59;;;;;;;19.02;10.45;;;21.30;38.60;;;;;;5069412;28;20111;-64
2022/01/26 14:16:27;;;;;;;20.70;10.27;;;21.30;38.60;;;;;;5073941;28;20102;-65
2022/01/26 14:24:28;;;;;;;20.70;10.83;;;21.30;39.20;;;;;;5074610;28;20040;-64
2022/01/26 14:26:57;;;;;;;19.33;10.80;;;21.30;39.50;;;;;;5074249;28;20040;-65
2022/01/26 14:29:34;;;;;;;17.35;10.20;;;21.30;39.40;;;;;;5073766;28;20051;-65
2022/01/26 14:39:35;;;;;;;18.63;10.93;;;21.20;39.30;;;;;;5060271;28;20055;-66
2022/01/26 15:00:06;;;;;;;21.65;10.85;;;21.10;40.50;;;;;;5066338;28;20028;-65
2022/01/26 15:31:10;;;;;;;24.27;12.18;;;21.00;40.90;;;;;;5061509;28;20086;-64
2022/01/26 15:33:46;;;;;;;22.58;13.05;;;21.00;41.10;;;;;;5054923;28;20483;-64
2022/01/26 15:41:58;;;;;;;23.25;13.10;;;21.00;42.60;;;;;;5072621;28;20056;-63
2022/01/26 15:44:42;;;;;;;22.30;13.30;;;20.90;41.80;;;;;;5053370;28;20032;-62
2022/01/26 15:50:07;;;;;;;24.92;13.70;;;20.90;41.90;;;;;;5052662;28;20040;-67
2022/01/26 16:12:41;;;;;;;36.92;15.32;;;20.90;42.70;;;;;;5073974;28;20092;-64
2022/01/26 16:16:34;;;;;;;30.33;14.93;;;20.80;42.90;;;;;;5074394;28;20377;-63
2022/01/26 16:26:19;;;;;;;27.02;15.27;;;20.80;42.40;;;;;;5073515;28;20102;-62
2022/01/26 18:13:04;;;;;;;16.65;9.57;;;20.20;42.50;;;;;;5076595;28;20044;-64
2022/01/26 18:40:28;;;;;;;15.13;9.20;;;20.10;42.60;;;;;;5058283;28;20071;-63
2022/01/26 18:50:49;;;;;;;15.40;9.48;;;20.10;42.50;;;;;;5063992;28;20044;-63
2022/01/26 18:53:15;;;;;;;14.05;9.27;;;20.10;42.50;;;;;;5057630;28;20033;-63
2022/01/26 18:55:41;;;;;;;15.40;8.88;;;20.10;42.50;;;;;;5054697;28;20388;-63
2022/01/26 18:58:07;;;;;;;14.23;8.55;;;20.10;42.50;;;;;;5046848;28;20028;-63
2022/01/26 19:00:33;;;;;;;15.07;9.02;;;20.10;42.50;;;;;;5073625;28;20567;-63
2022/01/26 19:03:00;;;;;;;15.35;8.40;;;20.20;42.50;;;;;;5054617;28;20439;-63
2022/01/26 19:05:27;;;;;;;14.70;9.13;;;20.20;42.50;;;;;;5071263;28;20082;-63
2022/01/26 19:07:54;;;;;;;15.82;8.70;;;20.10;42.40;;;;;;5072418;28;20411;-63
2022/01/26 19:10:20;;;;;;;13.40;8.63;;;20.10;42.40;;;;;;5072328;28;20056;-63